Al Basrah, Iraq
Current Conditions -  °F | °C
As of 4:00 AM on Sunday 26 Oct 2014 (Local Time) from ORMM Reporting Station
Clear Clear  
Wind Chill: 63°   Ceiling: Unl
Heat Index: 63°   Visibility: 6mi
Dew Point: 50°   Wind: 7mph
Humidity: 63%   Direction: 300°WNW
Pressure: 29.91"   Gusts: NA
Location:  30.5°N, 47.83°E
Report Text: ORMM 260100Z 30006KT CAVOK 17/10 Q1013 NOSIG
Loading
Personal Weather Stations






























Interactive Weather Map
Tropical Storm Tracking
New forecast layout! Learn more

10-Day Weather Forecast

Advertisements
Track Severe Weather on mobile